createdAt,value
2023-03-06T00:00:45.559Z,91.10
2023-03-06T00:03:12.371Z,91.10
2023-03-06T00:05:39.979Z,90.80
2023-03-06T00:08:06.921Z,90.70
2023-03-06T00:10:33.970Z,90.80
2023-03-06T00:13:03.554Z,90.90
2023-03-06T00:15:30.408Z,90.70
2023-03-06T00:17:57.711Z,90.60
2023-03-06T00:20:25.497Z,90.50
2023-03-06T00:22:52.601Z,90.50
2023-03-06T00:25:21.340Z,90.60
2023-03-06T00:27:48.946Z,90.60
2023-03-06T00:30:19.024Z,90.60
2023-03-06T00:32:45.821Z,90.50
2023-03-06T00:35:13.617Z,90.50
2023-03-06T00:37:40.769Z,90.50
2023-03-06T00:40:10.907Z,90.50
2023-03-06T00:42:37.594Z,90.50
2023-03-06T00:45:04.694Z,90.70
2023-03-06T00:47:31.313Z,90.70
2023-03-06T00:49:57.992Z,90.80
2023-03-06T00:52:25.047Z,90.70
2023-03-06T00:54:51.750Z,90.70
2023-03-06T00:57:18.531Z,90.80
2023-03-06T00:59:45.952Z,90.90
2023-03-06T01:02:13.000Z,90.90
2023-03-06T01:04:40.060Z,90.90
2023-03-06T01:07:06.682Z,91.00
2023-03-06T01:09:33.360Z,91.10
2023-03-06T01:12:00.116Z,91.20
2023-03-06T01:14:26.956Z,91.20
2023-03-06T01:16:53.710Z,91.10
2023-03-06T01:19:20.490Z,91.20
2023-03-06T01:21:47.194Z,91.10
2023-03-06T01:24:13.892Z,91.50
2023-03-06T01:26:40.584Z,91.20
2023-03-06T01:29:07.417Z,91.20
2023-03-06T01:31:34.245Z,91.20
2023-03-06T01:34:00.894Z,91.10
2023-03-06T01:36:27.552Z,91.10
2023-03-06T01:38:54.307Z,91.00
2023-03-06T01:41:21.485Z,91.00
2023-03-06T01:43:48.407Z,91.10
2023-03-06T01:46:33.298Z,91.20
2023-03-06T01:49:08.951Z,91.10
2023-03-06T01:51:51.131Z,91.00
2023-03-06T01:54:27.185Z,91.00
2023-03-06T01:57:00.553Z,91.00
2023-03-06T01:59:29.117Z,91.10
2023-03-06T02:01:57.189Z,91.00
2023-03-06T02:04:24.630Z,91.00
2023-03-06T02:06:51.667Z,90.80
2023-03-06T02:09:18.585Z,90.90
2023-03-06T02:11:46.229Z,90.80
2023-03-06T02:14:16.108Z,90.80
2023-03-06T02:16:43.553Z,90.70
2023-03-06T02:19:54.652Z,90.60
2023-03-06T02:22:24.364Z,90.50
2023-03-06T02:25:04.398Z,90.50
2023-03-06T02:27:31.602Z,91.00
2023-03-06T02:29:58.287Z,92.60
2023-03-06T02:32:24.976Z,93.40
2023-03-06T02:34:54.800Z,93.50
2023-03-06T02:37:22.380Z,93.60
2023-03-06T02:39:54.452Z,93.40
2023-03-06T02:42:24.760Z,93.00
2023-03-06T02:44:53.561Z,92.80
2023-03-06T02:47:20.295Z,92.90
2023-03-06T02:49:47.073Z,93.10
2023-03-06T02:52:13.708Z,93.10
2023-03-06T02:54:40.488Z,93.00
2023-03-06T02:57:07.116Z,92.80
2023-03-06T02:59:33.787Z,92.90
2023-03-06T03:02:00.394Z,93.10
2023-03-06T03:04:27.117Z,93.30
2023-03-06T03:06:53.790Z,93.50
2023-03-06T03:09:20.472Z,93.30
2023-03-06T03:11:47.125Z,93.20
2023-03-06T03:14:13.812Z,93.10
2023-03-06T03:16:40.489Z,93.00
2023-03-06T03:19:07.236Z,92.80
2023-03-06T03:21:33.898Z,92.70
2023-03-06T03:24:00.773Z,92.50
2023-03-06T03:26:27.440Z,92.30
2023-03-06T03:28:54.045Z,92.10
2023-03-06T03:31:20.692Z,92.00
2023-03-06T03:33:47.706Z,91.90
2023-03-06T03:36:14.423Z,91.80
2023-03-06T03:38:41.182Z,91.80
2023-03-06T03:41:07.974Z,91.70
2023-03-06T03:43:34.616Z,91.80
2023-03-06T03:46:01.255Z,91.80
2023-03-06T03:48:27.851Z,91.70
2023-03-06T03:50:54.490Z,91.60
2023-03-06T03:53:21.128Z,91.60
2023-03-06T03:55:48.684Z,91.50
2023-03-06T03:58:15.642Z,91.50
2023-03-06T04:00:42.357Z,91.50
2023-03-06T04:03:08.986Z,91.60
2023-03-06T04:05:35.907Z,91.50
2023-03-06T04:08:03.193Z,91.40
2023-03-06T04:10:29.928Z,91.40
2023-03-06T04:12:57.075Z,91.30
2023-03-06T04:15:23.861Z,91.70
2023-03-06T04:17:50.496Z,91.40
2023-03-06T04:20:17.293Z,91.30
2023-03-06T04:22:43.968Z,91.30
2023-03-06T04:25:10.737Z,91.40
2023-03-06T04:27:37.458Z,91.60
2023-03-06T04:30:05.757Z,91.70
2023-03-06T04:32:32.538Z,91.80
2023-03-06T04:34:59.202Z,91.80
2023-03-06T04:37:26.494Z,91.80
2023-03-06T04:39:53.377Z,91.90
2023-03-06T04:42:20.004Z,91.90
2023-03-06T04:44:46.675Z,91.90
2023-03-06T04:47:13.425Z,91.90
2023-03-06T04:49:40.097Z,91.90
2023-03-06T04:52:07.399Z,91.90
2023-03-06T04:54:36.155Z,91.90
2023-03-06T04:57:02.888Z,92.10
2023-03-06T04:59:29.634Z,92.40
2023-03-06T05:01:56.443Z,92.60
2023-03-06T05:04:23.146Z,93.10
2023-03-06T05:06:49.878Z,93.00
2023-03-06T05:09:16.771Z,93.00
2023-03-06T05:11:43.394Z,93.10
2023-03-06T05:14:10.063Z,93.10
2023-03-06T05:16:36.717Z,93.20
2023-03-06T05:19:03.542Z,93.30
2023-03-06T05:21:30.194Z,93.30
2023-03-06T05:23:56.885Z,93.30
2023-03-06T05:26:23.496Z,93.20
2023-03-06T05:28:50.112Z,93.20
2023-03-06T05:31:16.999Z,93.20
2023-03-06T05:33:43.690Z,93.10
2023-03-06T05:36:10.389Z,93.60
2023-03-06T05:38:37.162Z,93.10
2023-03-06T05:41:04.072Z,92.30
2023-03-06T05:43:30.792Z,92.30
2023-03-06T05:46:05.165Z,92.50
2023-03-06T05:48:32.574Z,92.80
2023-03-06T05:51:00.687Z,93.10
2023-03-06T05:53:29.166Z,93.30
2023-03-06T05:56:04.322Z,93.30
2023-03-06T05:58:32.145Z,93.30
2023-03-06T06:00:59.037Z,93.30
2023-03-06T06:03:26.037Z,93.40
2023-03-06T06:05:53.165Z,93.30
2023-03-06T06:08:20.801Z,93.20
2023-03-06T06:10:47.523Z,93.20
2023-03-06T06:13:14.306Z,93.60
2023-03-06T06:15:40.937Z,93.90
2023-03-06T06:18:07.594Z,95.40
2023-03-06T06:20:35.453Z,95.80
2023-03-06T06:23:02.275Z,94.30
2023-03-06T06:25:29.072Z,93.90
2023-03-06T06:27:56.884Z,93.90
2023-03-06T06:30:24.212Z,93.60
2023-03-06T06:32:50.887Z,93.70
2023-03-06T06:35:17.713Z,93.70
2023-03-06T06:37:44.509Z,93.60
2023-03-06T06:40:11.735Z,94.10
2023-03-06T06:42:40.269Z,93.50
2023-03-06T06:45:10.996Z,93.30
2023-03-06T06:47:41.070Z,93.10
2023-03-06T06:50:12.507Z,92.70
2023-03-06T06:52:39.163Z,92.60
2023-03-06T06:55:06.295Z,92.50
2023-03-06T06:57:33.056Z,92.40
2023-03-06T06:59:59.710Z,92.40
2023-03-06T07:02:26.377Z,92.20
2023-03-06T07:05:03.591Z,92.10
2023-03-06T07:07:34.217Z,92.30
2023-03-06T07:10:00.904Z,92.70
2023-03-06T07:12:27.545Z,92.80
2023-03-06T07:14:54.181Z,92.70
2023-03-06T07:17:20.825Z,92.60
2023-03-06T07:19:48.245Z,92.70
2023-03-06T07:22:15.013Z,92.70
2023-03-06T07:24:41.708Z,92.70
2023-03-06T07:27:08.423Z,92.80
2023-03-06T07:29:35.192Z,92.80
2023-03-06T07:32:01.973Z,92.80
2023-03-06T07:34:28.824Z,92.90
2023-03-06T07:36:55.545Z,93.20
2023-03-06T07:39:22.143Z,93.20
2023-03-06T07:41:48.788Z,93.20
2023-03-06T07:44:15.415Z,93.20
2023-03-06T07:46:42.116Z,93.20
2023-03-06T07:49:08.906Z,93.20
2023-03-06T07:51:35.577Z,93.20
2023-03-06T07:54:02.222Z,93.10
2023-03-06T07:56:28.917Z,92.90
2023-03-06T07:58:57.038Z,92.80
2023-03-06T08:01:24.223Z,92.70
2023-03-06T08:03:51.472Z,92.60
2023-03-06T08:06:27.048Z,92.50
2023-03-06T08:08:55.744Z,92.30
2023-03-06T08:11:25.911Z,92.20
2023-03-06T08:13:52.969Z,92.00
2023-03-06T08:16:21.367Z,91.80
2023-03-06T08:18:48.353Z,91.60
2023-03-06T08:21:18.094Z,91.50
2023-03-06T08:23:45.744Z,91.40
2023-03-06T08:26:15.522Z,91.30
2023-03-06T08:28:42.448Z,91.00
2023-03-06T08:31:39.508Z,90.80
2023-03-06T08:34:09.525Z,90.80
2023-03-06T08:36:36.530Z,90.70
2023-03-06T08:39:04.018Z,90.60
2023-03-06T08:41:30.968Z,90.60
2023-03-06T08:43:57.913Z,90.70
2023-03-06T08:46:26.342Z,89.90
2023-03-06T08:48:53.440Z,89.40
2023-03-06T08:51:22.555Z,88.80
2023-03-06T08:53:49.953Z,89.00
2023-03-06T08:56:25.711Z,88.90
2023-03-06T08:58:54.161Z,88.50
2023-03-06T09:01:26.846Z,87.50
2023-03-06T09:03:55.966Z,86.50
2023-03-06T09:06:23.505Z,86.10
2023-03-06T09:08:53.777Z,85.70
2023-03-06T09:11:21.765Z,85.30
2023-03-06T09:13:48.516Z,85.20
2023-03-06T09:16:15.277Z,85.20
2023-03-06T09:18:42.361Z,84.80
2023-03-06T09:21:10.140Z,84.00
2023-03-06T09:23:39.422Z,84.20
2023-03-06T09:26:07.026Z,83.50
2023-03-06T09:28:36.688Z,83.20
2023-03-06T09:31:11.589Z,82.60
2023-03-06T09:33:39.038Z,82.60
2023-03-06T09:36:06.870Z,82.60
2023-03-06T09:38:34.792Z,82.80
2023-03-06T09:41:04.683Z,81.40
2023-03-06T09:43:36.246Z,81.30
2023-03-06T09:46:40.672Z,79.30
2023-03-06T09:49:23.061Z,80.00
2023-03-06T09:52:09.619Z,79.70
2023-03-06T09:54:44.411Z,79.10
2023-03-06T09:57:20.729Z,78.80
2023-03-06T09:59:51.414Z,79.70
2023-03-06T10:02:27.141Z,79.90
2023-03-06T10:05:01.072Z,79.80
2023-03-06T10:07:43.723Z,80.00
2023-03-06T10:10:20.424Z,79.10
2023-03-06T10:13:16.215Z,79.60
2023-03-06T10:15:46.134Z,79.70
2023-03-06T10:18:13.654Z,78.80
2023-03-06T10:20:40.322Z,79.20
2023-03-06T10:23:28.539Z,79.40
2023-03-06T10:26:01.174Z,79.10
2023-03-06T10:28:35.117Z,78.20
2023-03-06T10:31:27.941Z,77.70
2023-03-06T10:33:58.493Z,78.80
2023-03-06T10:36:28.508Z,79.40
2023-03-06T10:38:57.105Z,78.60
2023-03-06T10:41:30.726Z,78.40
2023-03-06T10:44:00.405Z,78.50
2023-03-06T10:46:51.544Z,78.70
2023-03-06T10:49:34.543Z,78.60
2023-03-06T10:52:01.235Z,78.90
2023-03-06T10:54:30.659Z,78.60
2023-03-06T10:56:57.750Z,79.10
2023-03-06T10:59:28.354Z,79.10
2023-03-06T11:02:36.173Z,78.50
2023-03-06T11:05:04.553Z,77.70
2023-03-06T11:07:35.971Z,77.90
2023-03-06T11:10:18.968Z,77.50
2023-03-06T11:13:01.402Z,77.40
2023-03-06T11:15:29.548Z,76.00
2023-03-06T11:18:04.421Z,76.40
2023-03-06T11:20:51.929Z,79.60
2023-03-06T11:23:42.345Z,81.20
2023-03-06T11:26:20.026Z,80.70
2023-03-06T11:29:16.107Z,80.00
2023-03-06T11:32:18.614Z,80.30
2023-03-06T11:34:53.152Z,80.10
2023-03-06T11:37:31.818Z,80.20
2023-03-06T11:40:10.768Z,79.90
2023-03-06T11:43:01.378Z,79.20
2023-03-06T11:45:38.095Z,78.80
2023-03-06T11:48:24.635Z,78.90
2023-03-06T11:50:53.595Z,78.20
2023-03-06T11:53:23.173Z,76.60
2023-03-06T11:56:10.336Z,77.00
2023-03-06T11:58:58.188Z,77.10
2023-03-06T12:01:57.590Z,76.80
2023-03-06T12:04:46.061Z,76.60
2023-03-06T12:07:30.442Z,76.40
2023-03-06T12:10:11.488Z,76.30
2023-03-06T12:13:19.213Z,75.90
2023-03-06T12:15:54.533Z,76.30
2023-03-06T12:18:29.874Z,75.10
2023-03-06T12:21:36.666Z,74.90
2023-03-06T12:24:30.605Z,74.00
2023-03-06T12:27:04.512Z,72.90
2023-03-06T12:29:39.988Z,72.40
2023-03-06T12:32:35.108Z,71.40
2023-03-06T12:35:19.960Z,71.60
2023-03-06T12:37:49.430Z,70.80
2023-03-06T12:40:45.530Z,70.60
2023-03-06T12:43:49.590Z,70.40
2023-03-06T12:46:20.368Z,70.90
2023-03-06T12:49:26.273Z,71.10
2023-03-06T12:51:58.562Z,71.00
2023-03-06T12:54:32.399Z,71.10
2023-03-06T12:57:00.759Z,70.40
2023-03-06T12:59:48.001Z,70.80
2023-03-06T13:02:33.534Z,70.20
2023-03-06T13:05:45.394Z,70.10
2023-03-06T13:09:00.682Z,70.30
2023-03-06T13:11:36.431Z,70.80
2023-03-06T13:14:24.773Z,70.00
2023-03-06T13:16:51.804Z,70.50
2023-03-06T13:19:26.528Z,70.40
2023-03-06T13:21:56.212Z,70.60
2023-03-06T13:24:25.436Z,69.70
2023-03-06T13:26:56.777Z,69.20
2023-03-06T13:29:38.516Z,69.00
2023-03-06T13:32:16.214Z,68.90
2023-03-06T13:34:48.559Z,69.20
2023-03-06T13:37:23.161Z,68.80
2023-03-06T13:39:55.529Z,68.30
2023-03-06T13:42:42.587Z,68.10
2023-03-06T13:45:16.277Z,68.80
2023-03-06T13:48:15.825Z,69.00
2023-03-06T13:50:48.131Z,69.40
2023-03-06T13:53:30.032Z,70.80
2023-03-06T13:56:06.564Z,73.50
2023-03-06T13:59:13.790Z,74.20
2023-03-06T14:01:40.750Z,75.00
2023-03-06T14:04:10.940Z,74.20
2023-03-06T14:06:38.402Z,73.70
2023-03-06T14:09:08.270Z,73.40
2023-03-06T14:11:36.340Z,73.30
2023-03-06T14:14:03.715Z,71.90
2023-03-06T14:16:49.053Z,71.40
2023-03-06T14:19:18.562Z,71.10
2023-03-06T14:21:45.281Z,70.10
2023-03-06T14:24:20.184Z,70.10
2023-03-06T14:26:50.222Z,70.10
2023-03-06T14:29:25.598Z,69.90
2023-03-06T14:31:55.103Z,68.80
2023-03-06T14:34:29.314Z,67.50
2023-03-06T14:37:02.723Z,66.90
2023-03-06T14:39:39.404Z,67.00
2023-03-06T14:42:06.002Z,67.50
2023-03-06T14:44:32.640Z,67.00
2023-03-06T14:47:23.194Z,66.80
2023-03-06T14:50:23.549Z,67.10
2023-03-06T14:53:04.293Z,66.30
2023-03-06T14:55:34.671Z,67.20
2023-03-06T14:58:07.607Z,67.10
2023-03-06T15:00:40.729Z,67.00
2023-03-06T15:03:24.721Z,66.40
2023-03-06T15:05:52.204Z,65.70
2023-03-06T15:08:25.145Z,65.90
2023-03-06T15:11:03.474Z,66.50
2023-03-06T15:13:32.417Z,66.60
2023-03-06T15:16:00.742Z,66.10
2023-03-06T15:18:39.638Z,66.50
2023-03-06T15:21:16.163Z,67.00
2023-03-06T15:23:48.326Z,67.00
2023-03-06T15:26:47.302Z,66.90
2023-03-06T15:29:22.936Z,67.10
2023-03-06T15:31:49.830Z,67.00
2023-03-06T15:34:24.427Z,67.10
2023-03-06T15:36:56.668Z,67.60
2023-03-06T15:39:34.623Z,67.20
2023-03-06T15:42:18.208Z,67.40
2023-03-06T15:44:51.005Z,67.40
2023-03-06T15:47:17.904Z,67.90
2023-03-06T15:49:45.152Z,68.00
2023-03-06T15:52:12.092Z,68.20
2023-03-06T15:54:38.844Z,68.80
2023-03-06T15:57:08.458Z,69.50
2023-03-06T15:59:43.428Z,69.50
2023-03-06T16:02:21.652Z,69.40
2023-03-06T16:04:49.370Z,69.90
2023-03-06T16:07:16.428Z,70.50
2023-03-06T16:09:43.732Z,70.60
2023-03-06T16:12:21.675Z,70.80
2023-03-06T16:14:49.470Z,71.80
2023-03-06T16:17:16.867Z,72.80
2023-03-06T16:19:44.203Z,74.00
2023-03-06T16:22:11.152Z,74.70
2023-03-06T16:24:37.795Z,75.40
2023-03-06T16:27:04.609Z,75.80
2023-03-06T16:29:31.430Z,75.90
2023-03-06T16:31:59.035Z,75.60
2023-03-06T16:34:25.807Z,75.90
2023-03-06T16:36:52.616Z,76.00
2023-03-06T16:39:22.581Z,76.20
2023-03-06T16:41:51.569Z,76.30
2023-03-06T16:44:18.792Z,76.10
2023-03-06T16:46:48.076Z,76.10
2023-03-06T16:49:25.263Z,76.20
2023-03-06T16:51:52.765Z,76.60
2023-03-06T16:54:20.067Z,76.80
2023-03-06T16:56:46.770Z,77.00
2023-03-06T16:59:13.756Z,77.40
2023-03-06T17:01:42.922Z,77.90
2023-03-06T17:04:10.237Z,78.30
2023-03-06T17:06:37.033Z,78.30
2023-03-06T17:09:04.573Z,78.10
2023-03-06T17:11:31.319Z,77.10
2023-03-06T17:13:58.301Z,77.30
2023-03-06T17:16:24.986Z,76.20
2023-03-06T17:18:52.348Z,76.60
2023-03-06T17:21:19.148Z,76.10
2023-03-06T17:23:46.049Z,76.70
2023-03-06T17:26:18.740Z,76.50
2023-03-06T17:28:46.386Z,76.40
2023-03-06T17:31:22.121Z,75.70
2023-03-06T17:33:49.588Z,75.80
2023-03-06T17:36:16.965Z,75.80
2023-03-06T17:38:43.629Z,75.90
2023-03-06T17:41:11.727Z,76.40
2023-03-06T17:43:39.559Z,76.40
2023-03-06T17:46:09.278Z,76.00
2023-03-06T17:48:36.841Z,76.40
2023-03-06T17:51:04.382Z,76.40
2023-03-06T17:53:31.539Z,76.20
2023-03-06T17:55:58.304Z,76.10
2023-03-06T17:58:26.316Z,76.00
2023-03-06T18:00:53.705Z,76.00
2023-03-06T18:03:20.556Z,75.80
2023-03-06T18:05:47.239Z,75.70
2023-03-06T18:08:14.060Z,75.70
2023-03-06T18:10:41.752Z,75.40
2023-03-06T18:13:09.752Z,75.60
2023-03-06T18:15:40.786Z,75.80
2023-03-06T18:18:08.562Z,76.10
2023-03-06T18:20:41.078Z,76.30
2023-03-06T18:23:08.063Z,76.80
2023-03-06T18:25:35.321Z,77.00
2023-03-06T18:28:02.051Z,77.30
2023-03-06T18:30:29.030Z,77.40
2023-03-06T18:32:55.849Z,77.30
2023-03-06T18:35:22.657Z,77.60
2023-03-06T18:37:49.305Z,77.90
2023-03-06T18:40:16.221Z,77.90
2023-03-06T18:42:43.260Z,78.20
2023-03-06T18:45:11.048Z,78.00
2023-03-06T18:47:37.827Z,77.80
2023-03-06T18:50:05.403Z,78.00
2023-03-06T18:52:34.768Z,78.10
2023-03-06T18:55:01.431Z,79.00
2023-03-06T18:57:30.215Z,78.20
2023-03-06T18:59:57.092Z,78.50
2023-03-06T19:02:23.844Z,79.10
2023-03-06T19:04:50.780Z,79.10
2023-03-06T19:07:17.573Z,79.20
2023-03-06T19:09:44.359Z,79.40
2023-03-06T19:12:11.698Z,79.10
2023-03-06T19:14:38.874Z,79.50
2023-03-06T19:17:05.527Z,79.90
2023-03-06T19:19:32.295Z,79.60
2023-03-06T19:21:59.948Z,79.70
2023-03-06T19:24:27.152Z,80.10
2023-03-06T19:26:53.896Z,79.90
2023-03-06T19:29:20.594Z,79.60
2023-03-06T19:31:47.402Z,80.20
2023-03-06T19:34:14.232Z,79.90
2023-03-06T19:36:41.211Z,79.40
2023-03-06T19:39:09.526Z,79.50
2023-03-06T19:41:36.471Z,79.40
2023-03-06T19:44:05.058Z,79.10
2023-03-06T19:46:32.822Z,78.40
2023-03-06T19:49:01.720Z,78.40
2023-03-06T19:51:29.064Z,78.50
2023-03-06T19:53:57.349Z,78.80
2023-03-06T19:56:28.658Z,78.40
2023-03-06T19:58:55.994Z,78.80
2023-03-06T20:01:25.025Z,78.70
2023-03-06T20:03:58.673Z,78.40
2023-03-06T20:06:28.078Z,78.50
2023-03-06T20:08:55.071Z,78.70
2023-03-06T20:11:27.222Z,78.30
2023-03-06T20:13:53.971Z,78.30
2023-03-06T20:16:21.205Z,78.30
2023-03-06T20:18:47.970Z,78.40
2023-03-06T20:21:15.386Z,78.50
2023-03-06T20:23:42.834Z,78.20
2023-03-06T20:26:14.895Z,78.50
2023-03-06T20:28:42.549Z,78.10
2023-03-06T20:33:58.820Z,78.60
2023-03-06T20:36:31.949Z,78.80
2023-03-06T20:39:06.679Z,78.60
2023-03-06T20:41:33.666Z,78.70
2023-03-06T20:44:02.502Z,78.40
2023-03-06T20:46:30.304Z,78.50
2023-03-06T20:48:58.244Z,78.90
2023-03-06T20:51:27.884Z,79.00
2023-03-06T20:53:55.572Z,78.80
2023-03-06T20:56:25.592Z,78.70
2023-03-06T20:58:52.647Z,78.70
2023-03-06T21:01:21.425Z,79.00
2023-03-06T21:03:48.870Z,79.10
2023-03-06T21:06:16.472Z,79.60
2023-03-06T21:08:43.681Z,79.70
2023-03-06T21:11:10.452Z,79.70
2023-03-06T21:13:37.280Z,79.70
2023-03-06T21:16:06.621Z,79.90
2023-03-06T21:18:33.595Z,80.40
2023-03-06T21:21:05.464Z,80.90
2023-03-06T21:23:32.143Z,81.00
2023-03-06T21:25:58.893Z,81.20
2023-03-06T21:28:25.626Z,81.60
2023-03-06T21:30:52.299Z,81.60
2023-03-06T21:33:19.030Z,82.10
2023-03-06T21:35:46.220Z,82.80
2023-03-06T21:38:14.160Z,83.40
2023-03-06T21:40:41.038Z,83.00
2023-03-06T21:43:08.814Z,83.00
2023-03-06T21:45:35.689Z,83.40
2023-03-06T21:48:02.558Z,83.50
2023-03-06T21:50:30.142Z,83.70
2023-03-06T21:52:57.362Z,84.50
2023-03-06T21:55:24.087Z,84.30
2023-03-06T21:57:52.267Z,84.10
2023-03-06T22:00:20.039Z,83.80
2023-03-06T22:02:47.144Z,83.70
2023-03-06T22:05:14.094Z,83.80
2023-03-06T22:07:41.180Z,83.90
2023-03-06T22:10:11.951Z,83.90
2023-03-06T22:12:39.927Z,83.80
2023-03-06T22:15:07.289Z,84.00
2023-03-06T22:17:34.056Z,83.90
2023-03-06T22:20:01.078Z,83.60
2023-03-06T22:22:27.775Z,83.80
2023-03-06T22:24:54.551Z,83.60
2023-03-06T22:27:21.724Z,83.50
2023-03-06T22:29:48.423Z,83.10
2023-03-06T22:32:15.461Z,83.40
2023-03-06T22:34:42.221Z,83.50
2023-03-06T22:37:08.871Z,83.40
2023-03-06T22:39:35.561Z,83.40
2023-03-06T22:42:02.199Z,83.40
2023-03-06T22:44:28.928Z,83.80
2023-03-06T22:46:55.960Z,83.80
2023-03-06T22:49:22.622Z,83.90
2023-03-06T22:51:49.292Z,83.50
2023-03-06T22:54:15.942Z,83.70
2023-03-06T22:56:42.610Z,83.70
2023-03-06T22:59:09.270Z,83.40
2023-03-06T23:01:36.076Z,83.50
2023-03-06T23:04:04.819Z,83.50
2023-03-06T23:06:34.592Z,83.60
2023-03-06T23:09:04.621Z,83.70
2023-03-06T23:11:31.759Z,83.90
2023-03-06T23:13:59.033Z,83.70
2023-03-06T23:16:25.866Z,83.50
2023-03-06T23:18:53.559Z,83.50
2023-03-06T23:21:22.883Z,83.80
2023-03-06T23:23:51.436Z,83.80
2023-03-06T23:26:19.844Z,83.80
2023-03-06T23:28:46.803Z,84.00
2023-03-06T23:31:23.736Z,83.40
2023-03-06T23:33:50.495Z,83.00
2023-03-06T23:36:18.381Z,83.10
2023-03-06T23:38:45.442Z,83.00
2023-03-06T23:41:15.078Z,83.00
2023-03-06T23:43:42.374Z,83.30
2023-03-06T23:46:09.572Z,83.30
2023-03-06T23:48:38.354Z,83.40
2023-03-06T23:51:07.271Z,83.20
2023-03-06T23:53:34.027Z,82.80
2023-03-06T23:56:01.117Z,82.90
2023-03-06T23:58:27.814Z,82.90
